createdAt,value
2022-11-02T00:01:44.694Z,2.47
2022-11-02T00:04:12.304Z,2.30
2022-11-02T00:06:40.358Z,2.40
2022-11-02T00:09:07.340Z,2.33
2022-11-02T00:11:34.003Z,2.27
2022-11-02T00:14:00.700Z,2.43
2022-11-02T00:16:27.422Z,2.03
2022-11-02T00:18:58.800Z,2.47
2022-11-02T00:21:27.641Z,2.37
2022-11-02T00:23:57.934Z,2.70
2022-11-02T00:26:26.460Z,2.50
2022-11-02T00:28:55.566Z,2.33
2022-11-02T00:31:22.320Z,2.43
2022-11-02T00:33:49.856Z,2.60
2022-11-02T00:36:17.659Z,2.10
2022-11-02T00:38:44.372Z,2.30
2022-11-02T00:41:12.904Z,2.20
2022-11-02T00:43:40.877Z,1.80
2022-11-02T00:46:07.620Z,2.00
2022-11-02T00:48:34.297Z,2.67
2022-11-02T00:51:00.996Z,2.43
2022-11-02T00:53:29.475Z,2.70
2022-11-02T00:55:56.955Z,2.50
2022-11-02T00:58:23.703Z,3.20
2022-11-02T01:00:51.245Z,2.90
2022-11-02T01:03:18.056Z,2.57
2022-11-02T01:05:44.810Z,2.17
2022-11-02T01:08:12.036Z,2.10
2022-11-02T01:10:40.621Z,2.20
2022-11-02T01:13:11.904Z,2.33
2022-11-02T01:15:40.826Z,2.20
2022-11-02T01:18:07.695Z,1.50
2022-11-02T01:20:34.701Z,1.70
2022-11-02T01:23:01.390Z,2.17
2022-11-02T01:25:28.119Z,2.20
2022-11-02T01:27:55.629Z,2.33
2022-11-02T01:30:22.578Z,2.40
2022-11-02T01:32:49.565Z,2.20
2022-11-02T01:35:16.901Z,2.73
2022-11-02T01:37:43.735Z,2.60
2022-11-02T01:40:12.120Z,2.30
2022-11-02T01:42:38.825Z,2.40
2022-11-02T01:45:06.121Z,2.80
2022-11-02T01:47:38.129Z,2.90
2022-11-02T01:50:09.655Z,2.40
2022-11-02T01:52:39.472Z,2.47
2022-11-02T01:55:16.632Z,2.60
2022-11-02T01:57:51.567Z,2.37
2022-11-02T02:00:18.694Z,2.63
2022-11-02T02:03:00.204Z,2.70
2022-11-02T02:05:29.741Z,2.27
2022-11-02T02:07:58.072Z,2.83
2022-11-02T02:10:26.485Z,2.97
2022-11-02T02:12:53.284Z,2.60
2022-11-02T02:15:26.337Z,2.60
2022-11-02T02:17:57.461Z,2.97
2022-11-02T02:20:24.466Z,2.57
2022-11-02T02:23:14.536Z,2.27
2022-11-02T02:25:47.328Z,2.50
2022-11-02T02:28:33.762Z,2.63
2022-11-02T02:31:28.056Z,2.73
2022-11-02T02:34:17.899Z,2.17
2022-11-02T02:36:58.345Z,2.37
2022-11-02T02:39:31.047Z,2.70
2022-11-02T02:42:11.820Z,2.70
2022-11-02T02:44:47.059Z,2.83
2022-11-02T02:47:19.288Z,2.90
2022-11-02T02:49:53.980Z,2.60
2022-11-02T02:52:23.522Z,3.17
2022-11-02T02:54:53.089Z,2.73
2022-11-02T02:57:23.824Z,2.83
2022-11-02T02:59:50.639Z,3.40
2022-11-02T03:02:36.496Z,2.97
2022-11-02T03:05:26.980Z,3.60
2022-11-02T03:07:55.309Z,2.80
2022-11-02T03:10:54.710Z,2.83
2022-11-02T03:13:24.932Z,2.77
2022-11-02T03:16:01.358Z,2.53
2022-11-02T03:18:47.538Z,3.00
2022-11-02T03:21:25.680Z,3.37
2022-11-02T03:24:09.549Z,3.50
2022-11-02T03:26:49.245Z,3.63
2022-11-02T03:29:27.045Z,3.50
2022-11-02T03:32:06.939Z,3.10
2022-11-02T03:35:03.888Z,2.90
2022-11-02T03:37:41.945Z,3.40
2022-11-02T03:40:16.071Z,3.07
2022-11-02T03:42:45.703Z,2.87
2022-11-02T03:45:17.992Z,2.97
2022-11-02T03:47:50.480Z,3.20
2022-11-02T03:50:21.856Z,3.60
2022-11-02T03:52:58.549Z,3.30
2022-11-02T03:55:31.772Z,3.30
2022-11-02T03:57:59.461Z,3.50
2022-11-02T04:00:34.500Z,3.43
2022-11-02T04:03:08.716Z,3.47
2022-11-02T04:05:40.851Z,4.60
2022-11-02T04:08:31.997Z,3.63
2022-11-02T04:11:20.753Z,3.60
2022-11-02T04:14:07.740Z,2.97
2022-11-02T04:16:38.555Z,4.03
2022-11-02T04:19:29.316Z,3.40
2022-11-02T04:22:26.284Z,3.53
2022-11-02T04:25:17.858Z,4.00
2022-11-02T04:27:52.728Z,4.17
2022-11-02T04:30:24.038Z,3.67
2022-11-02T04:33:13.028Z,3.67
2022-11-02T04:36:04.865Z,4.10
2022-11-02T04:38:43.208Z,2.93
2022-11-02T04:41:38.429Z,3.70
2022-11-02T04:44:11.376Z,3.67
2022-11-02T04:46:39.471Z,3.80
2022-11-02T04:49:08.747Z,3.60
2022-11-02T04:51:40.137Z,3.73
2022-11-02T04:54:08.269Z,3.83
2022-11-02T04:56:35.072Z,3.57
2022-11-02T04:59:01.821Z,3.93
2022-11-02T05:01:31.038Z,3.57
2022-11-02T05:03:59.940Z,3.33
2022-11-02T05:06:29.592Z,3.60
2022-11-02T05:08:56.393Z,3.27
2022-11-02T05:11:24.412Z,3.37
2022-11-02T05:13:52.136Z,3.83
2022-11-02T05:16:19.886Z,3.53
2022-11-02T05:18:49.303Z,3.20
2022-11-02T05:21:17.722Z,3.97
2022-11-02T05:23:44.595Z,3.60
2022-11-02T05:26:12.841Z,4.13
2022-11-02T05:28:44.348Z,3.93
2022-11-02T05:31:11.136Z,3.50
2022-11-02T05:33:38.476Z,3.17
2022-11-02T05:36:09.552Z,3.57
2022-11-02T05:41:06.713Z,4.00
2022-11-02T05:43:37.270Z,3.30
2022-11-02T05:46:06.363Z,3.60
2022-11-02T05:48:33.673Z,3.67
2022-11-02T05:51:02.976Z,3.60
2022-11-02T05:53:32.620Z,3.60
2022-11-02T05:56:00.972Z,3.80
2022-11-02T05:58:29.120Z,3.40
2022-11-02T06:01:00.282Z,3.60
2022-11-02T06:03:27.063Z,3.60
2022-11-02T06:06:04.945Z,3.60
2022-11-02T06:08:33.816Z,3.87
2022-11-02T06:11:11.286Z,3.67
2022-11-02T06:13:38.828Z,3.57
2022-11-02T06:16:09.485Z,3.20
2022-11-02T06:18:37.488Z,3.43
2022-11-02T06:21:04.765Z,4.07
2022-11-02T06:23:31.862Z,3.70
2022-11-02T06:26:00.918Z,3.83
2022-11-02T06:28:29.924Z,3.80
2022-11-02T06:30:57.428Z,3.90
2022-11-02T06:33:24.228Z,3.47
2022-11-02T06:35:52.655Z,3.73
2022-11-02T06:38:19.773Z,3.40
2022-11-02T06:41:00.543Z,3.07
2022-11-02T06:43:27.324Z,3.67
2022-11-02T06:45:55.720Z,3.23
2022-11-02T06:48:22.617Z,3.53
2022-11-02T06:50:49.334Z,2.90
2022-11-02T06:53:16.107Z,3.67
2022-11-02T06:55:42.830Z,4.10
2022-11-02T06:58:10.239Z,4.10
2022-11-02T07:00:37.263Z,3.47
2022-11-02T07:03:07.237Z,3.70
2022-11-02T07:05:35.179Z,2.97
2022-11-02T07:08:02.510Z,3.20
2022-11-02T07:10:30.768Z,3.10
2022-11-02T07:12:59.635Z,3.10
2022-11-02T07:15:27.467Z,3.27
2022-11-02T07:17:54.443Z,4.23
2022-11-02T07:20:21.248Z,3.93
2022-11-02T07:22:59.549Z,3.67
2022-11-02T07:25:27.974Z,4.00
2022-11-02T07:27:55.032Z,3.57
2022-11-02T07:30:22.114Z,3.37
2022-11-02T07:32:48.836Z,3.37
2022-11-02T07:35:17.565Z,3.30
2022-11-02T07:37:45.635Z,2.80
2022-11-02T07:40:14.706Z,3.13
2022-11-02T07:42:48.853Z,4.88
2022-11-02T07:45:18.716Z,5.33
2022-11-02T07:47:46.169Z,4.80
2022-11-02T07:50:16.013Z,3.17
2022-11-02T07:52:47.576Z,2.72
2022-11-02T07:55:17.261Z,2.65
2022-11-02T07:57:44.915Z,2.53
2022-11-02T08:00:12.062Z,1.95
2022-11-02T08:02:39.403Z,2.13
2022-11-02T08:05:06.474Z,2.97
2022-11-02T08:07:33.251Z,1.90
2022-11-02T08:10:01.296Z,2.75
2022-11-02T08:12:28.777Z,3.45
2022-11-02T08:14:58.233Z,2.65
2022-11-02T08:17:26.752Z,2.85
2022-11-02T08:19:53.498Z,2.70
2022-11-02T08:22:20.254Z,2.88
2022-11-02T08:24:46.930Z,2.83
2022-11-02T08:27:13.640Z,2.78
2022-11-02T08:29:40.358Z,1.83
2022-11-02T08:32:07.122Z,1.77
2022-11-02T08:34:33.848Z,1.63
2022-11-02T08:37:01.689Z,1.50
2022-11-02T08:39:30.129Z,1.50
2022-11-02T08:41:56.970Z,1.30
2022-11-02T08:44:23.682Z,1.63
2022-11-02T08:46:50.458Z,1.48
2022-11-02T08:49:18.828Z,1.00
2022-11-02T08:51:47.522Z,1.35
2022-11-02T08:54:14.503Z,1.30
2022-11-02T08:56:42.297Z,1.02
2022-11-02T08:59:09.056Z,1.63
2022-11-02T09:01:35.865Z,1.48
2022-11-02T09:04:02.723Z,1.13
2022-11-02T09:06:30.057Z,1.00
2022-11-02T09:08:58.132Z,1.00
2022-11-02T09:11:27.317Z,1.25
2022-11-02T09:13:56.860Z,1.52
2022-11-02T09:16:23.978Z,1.20
2022-11-02T09:18:50.702Z,1.20
2022-11-02T09:21:17.408Z,1.30
2022-11-02T09:23:44.507Z,0.90
2022-11-02T09:26:12.014Z,1.15
2022-11-02T09:28:38.735Z,1.38
2022-11-02T09:31:08.905Z,1.15
2022-11-02T09:33:38.689Z,1.35
2022-11-02T09:36:06.426Z,1.48
2022-11-02T09:38:33.293Z,1.23
2022-11-02T09:41:00.398Z,1.17
2022-11-02T09:43:49.357Z,1.10
2022-11-02T09:46:27.321Z,1.42
2022-11-02T09:49:02.201Z,1.20
2022-11-02T09:51:35.591Z,1.40
2022-11-02T09:54:19.901Z,1.25
2022-11-02T09:56:49.156Z,1.33
2022-11-02T09:59:17.305Z,1.00
2022-11-02T10:02:08.990Z,1.13
2022-11-02T10:04:41.772Z,1.23
2022-11-02T10:07:16.329Z,1.30
2022-11-02T10:09:53.737Z,1.23
2022-11-02T10:12:47.325Z,0.80
2022-11-02T10:15:36.649Z,1.00
2022-11-02T10:18:06.688Z,1.27
2022-11-02T10:20:40.644Z,1.08
2022-11-02T10:23:13.376Z,0.98
2022-11-02T10:25:40.292Z,1.13
2022-11-02T10:28:16.058Z,1.00
2022-11-02T10:30:44.623Z,0.88
2022-11-02T10:33:16.518Z,1.00
2022-11-02T10:36:18.597Z,1.00
2022-11-02T10:39:09.377Z,1.10
2022-11-02T10:42:08.633Z,1.20
2022-11-02T10:45:14.465Z,1.20
2022-11-02T10:48:07.944Z,1.20
2022-11-02T10:50:48.945Z,1.00
2022-11-02T10:53:39.965Z,1.17
2022-11-02T10:56:18.499Z,0.70
2022-11-02T10:58:52.909Z,0.70
2022-11-02T11:01:19.981Z,0.90
2022-11-02T11:03:55.328Z,1.08
2022-11-02T11:06:24.165Z,1.38
2022-11-02T11:08:53.878Z,1.02
2022-11-02T11:11:36.039Z,0.95
2022-11-02T11:16:54.385Z,1.00
2022-11-02T11:22:22.696Z,0.80
2022-11-02T11:24:49.748Z,1.27
2022-11-02T11:27:19.842Z,0.90
2022-11-02T11:29:55.759Z,0.90
2022-11-02T11:32:30.495Z,0.82
2022-11-02T11:35:05.761Z,0.85
2022-11-02T11:37:34.409Z,1.25
2022-11-02T11:40:20.982Z,0.90
2022-11-02T11:42:51.450Z,1.00
2022-11-02T11:45:24.905Z,0.88
2022-11-02T11:48:04.757Z,1.08
2022-11-02T11:50:32.910Z,0.90
2022-11-02T11:53:26.261Z,1.08
2022-11-02T11:55:58.492Z,0.90
2022-11-02T11:58:35.166Z,0.77
2022-11-02T12:01:09.318Z,1.00
2022-11-02T12:03:53.822Z,1.23
2022-11-02T12:06:38.675Z,0.90
2022-11-02T12:09:20.448Z,1.63
2022-11-02T12:11:56.244Z,1.45
2022-11-02T12:14:47.647Z,0.90
2022-11-02T12:17:28.049Z,0.85
2022-11-02T12:20:37.048Z,1.25
2022-11-02T12:23:22.801Z,0.90
2022-11-02T12:25:52.393Z,1.10
2022-11-02T12:28:40.871Z,0.80
2022-11-02T12:31:28.825Z,1.05
2022-11-02T12:34:27.465Z,1.08
2022-11-02T12:37:35.472Z,1.08
2022-11-02T12:40:30.052Z,1.13
2022-11-02T12:43:22.646Z,1.05
2022-11-02T12:46:21.668Z,0.93
2022-11-02T12:49:13.397Z,0.80
2022-11-02T12:51:51.061Z,1.20
2022-11-02T12:54:24.894Z,1.48
2022-11-02T12:56:53.984Z,0.80
2022-11-02T12:59:20.957Z,0.93
2022-11-02T13:01:53.132Z,1.17
2022-11-02T13:04:30.308Z,1.17
2022-11-02T13:07:04.727Z,1.20
2022-11-02T13:09:51.328Z,1.10
2022-11-02T13:12:22.747Z,0.95
2022-11-02T13:14:53.834Z,0.70
2022-11-02T13:17:25.429Z,0.82
2022-11-02T13:19:56.111Z,0.77
2022-11-02T13:22:28.621Z,1.35
2022-11-02T13:25:13.463Z,1.15
2022-11-02T13:27:49.776Z,1.02
2022-11-02T13:30:19.300Z,0.93
2022-11-02T13:33:01.349Z,1.83
2022-11-02T13:35:43.267Z,0.77
2022-11-02T13:38:12.994Z,0.85
2022-11-02T13:41:14.069Z,0.80
2022-11-02T13:43:59.888Z,1.00
2022-11-02T13:46:33.631Z,0.90
2022-11-02T13:49:22.055Z,0.82
2022-11-02T13:51:53.561Z,0.82
2022-11-02T13:54:54.657Z,1.10
2022-11-02T13:57:43.639Z,1.35
2022-11-02T14:00:22.588Z,1.08
2022-11-02T14:02:55.748Z,1.13
2022-11-02T14:05:30.707Z,0.75
2022-11-02T14:08:05.515Z,1.50
2022-11-02T14:10:40.705Z,1.35
2022-11-02T14:13:14.547Z,0.90
2022-11-02T14:15:42.613Z,0.60
2022-11-02T14:18:09.685Z,0.90
2022-11-02T14:20:44.133Z,0.88
2022-11-02T14:23:19.169Z,0.88
2022-11-02T14:25:45.896Z,1.00
2022-11-02T14:28:21.856Z,1.40
2022-11-02T14:31:05.319Z,1.00
2022-11-02T14:33:51.969Z,0.80
2022-11-02T14:36:20.053Z,0.90
2022-11-02T14:38:52.332Z,0.77
2022-11-02T14:41:35.452Z,1.02
2022-11-02T14:44:31.951Z,0.80
2022-11-02T14:47:09.825Z,0.68
2022-11-02T14:49:56.970Z,1.20
2022-11-02T14:52:29.984Z,0.75
2022-11-02T14:55:07.604Z,0.93
2022-11-02T14:57:59.428Z,0.88
2022-11-02T15:00:35.796Z,1.10
2022-11-02T15:03:06.982Z,1.05
2022-11-02T15:05:37.476Z,0.80
2022-11-02T15:08:16.309Z,0.82
2022-11-02T15:10:45.666Z,1.25
2022-11-02T15:13:21.595Z,0.93
2022-11-02T15:15:51.102Z,1.05
2022-11-02T15:18:30.275Z,1.10
2022-11-02T15:21:17.177Z,1.10
2022-11-02T15:24:13.895Z,0.90
2022-11-02T15:26:55.494Z,0.90
2022-11-02T15:29:37.003Z,1.10
2022-11-02T15:32:10.258Z,1.20
2022-11-02T15:34:43.861Z,1.02
2022-11-02T15:37:18.478Z,0.90
2022-11-02T15:39:54.511Z,1.58
2022-11-02T15:42:43.118Z,0.90
2022-11-02T15:45:46.928Z,1.00
2022-11-02T15:48:46.240Z,1.30
2022-11-02T15:51:24.761Z,1.40
2022-11-02T15:54:10.276Z,1.00
2022-11-02T15:56:44.749Z,0.83
2022-11-02T15:59:47.862Z,1.07
2022-11-02T16:02:24.091Z,1.17
2022-11-02T16:04:57.274Z,1.17
2022-11-02T16:07:33.515Z,1.10
2022-11-02T16:10:31.581Z,1.20
2022-11-02T16:13:07.913Z,0.93
2022-11-02T16:15:35.654Z,1.17
2022-11-02T16:18:02.800Z,0.87
2022-11-02T16:20:35.886Z,0.90
2022-11-02T16:23:06.479Z,1.03
2022-11-02T16:25:39.612Z,0.90
2022-11-02T16:28:21.322Z,1.87
2022-11-02T16:31:15.694Z,1.07
2022-11-02T16:33:45.648Z,1.17
2022-11-02T16:36:16.691Z,1.23
2022-11-02T16:39:19.127Z,1.27
2022-11-02T16:41:55.902Z,1.10
2022-11-02T16:44:28.712Z,1.10
2022-11-02T16:47:17.357Z,1.67
2022-11-02T16:49:51.541Z,1.47
2022-11-02T16:52:25.054Z,1.50
2022-11-02T16:54:52.255Z,1.20
2022-11-02T16:57:26.050Z,1.10
2022-11-02T17:00:03.900Z,1.57
2022-11-02T17:02:42.890Z,5.20
2022-11-02T17:05:21.233Z,4.77
2022-11-02T17:08:20.446Z,3.10
2022-11-02T17:10:47.901Z,1.27
2022-11-02T17:13:21.659Z,1.33
2022-11-02T17:15:52.148Z,1.50
2022-11-02T17:18:22.313Z,1.93
2022-11-02T17:21:28.866Z,2.03
2022-11-02T17:23:57.579Z,1.77
2022-11-02T17:26:24.925Z,1.93
2022-11-02T17:29:14.119Z,2.00
2022-11-02T17:31:42.953Z,2.30
2022-11-02T17:34:20.010Z,1.60
2022-11-02T17:36:50.036Z,1.70
2022-11-02T17:39:19.741Z,2.00
2022-11-02T17:42:12.790Z,2.50
2022-11-02T17:44:40.002Z,3.63
2022-11-02T17:47:18.143Z,3.07
2022-11-02T17:49:44.912Z,2.00
2022-11-02T17:52:14.396Z,1.87
2022-11-02T17:54:41.525Z,1.83
2022-11-02T17:57:15.238Z,5.40
2022-11-02T17:59:42.757Z,4.53
2022-11-02T18:02:13.949Z,3.03
2022-11-02T18:04:40.870Z,2.23
2022-11-02T18:07:09.403Z,1.97
2022-11-02T18:09:37.061Z,2.33
2022-11-02T18:12:04.237Z,2.27
2022-11-02T18:14:31.021Z,8.27
2022-11-02T18:16:58.146Z,5.63
2022-11-02T18:19:24.980Z,3.73
2022-11-02T18:21:52.879Z,2.20
2022-11-02T18:24:19.621Z,2.03
2022-11-02T18:26:47.168Z,3.30
2022-11-02T18:29:14.216Z,4.50
2022-11-02T18:31:41.089Z,7.73
2022-11-02T18:34:09.897Z,3.97
2022-11-02T18:36:40.514Z,3.13
2022-11-02T18:39:08.708Z,2.03
2022-11-02T18:41:38.220Z,2.20
2022-11-02T18:44:13.764Z,2.10
2022-11-02T18:46:42.108Z,2.30
2022-11-02T18:49:09.308Z,2.10
2022-11-02T18:51:37.548Z,6.03
2022-11-02T18:54:06.108Z,3.50
2022-11-02T18:56:34.244Z,3.20
2022-11-02T18:59:01.620Z,2.53
2022-11-02T19:01:29.073Z,2.63
2022-11-02T19:03:58.395Z,2.40
2022-11-02T19:06:44.881Z,2.40
2022-11-02T19:09:19.862Z,5.80
2022-11-02T19:12:08.789Z,5.57
2022-11-02T19:14:42.240Z,3.60
2022-11-02T19:17:11.058Z,5.43
2022-11-02T19:19:40.968Z,15.57
2022-11-02T19:22:23.805Z,11.40
2022-11-02T19:24:51.436Z,4.80
2022-11-02T19:27:25.046Z,3.23
2022-11-02T19:29:53.056Z,3.00
2022-11-02T19:32:20.127Z,3.10
2022-11-02T19:34:46.992Z,3.30
2022-11-02T19:37:14.003Z,3.20
2022-11-02T19:39:40.950Z,3.27
2022-11-02T19:42:09.187Z,3.50
2022-11-02T19:44:42.099Z,3.60
2022-11-02T19:47:09.881Z,4.60
2022-11-02T19:49:38.189Z,8.40
2022-11-02T19:52:05.085Z,5.03
2022-11-02T19:54:31.888Z,4.43
2022-11-02T19:56:58.941Z,5.37
2022-11-02T19:59:25.732Z,8.77
2022-11-02T20:01:53.658Z,6.77
2022-11-02T20:04:20.374Z,6.43
2022-11-02T20:06:47.179Z,5.27
2022-11-02T20:09:16.683Z,5.13
2022-11-02T20:11:45.280Z,5.37
2022-11-02T20:14:13.945Z,5.00
2022-11-02T20:16:41.176Z,5.93
2022-11-02T20:19:10.207Z,5.10
2022-11-02T20:21:43.069Z,4.07
2022-11-02T20:24:11.668Z,4.40
2022-11-02T20:26:43.227Z,4.70
2022-11-02T20:29:13.731Z,4.47
2022-11-02T20:31:44.934Z,5.43
2022-11-02T20:34:13.020Z,4.90
2022-11-02T20:36:40.620Z,5.00
2022-11-02T20:39:09.228Z,4.47
2022-11-02T20:41:36.281Z,5.07
2022-11-02T20:44:03.259Z,4.83
2022-11-02T20:46:41.226Z,4.80
2022-11-02T20:49:20.866Z,4.50
2022-11-02T20:51:56.223Z,5.03
2022-11-02T20:54:24.352Z,5.07
2022-11-02T20:56:51.123Z,4.30
2022-11-02T20:59:18.135Z,4.70
2022-11-02T21:01:45.430Z,4.30
2022-11-02T21:04:18.505Z,5.03
2022-11-02T21:06:46.550Z,5.63
2022-11-02T21:09:13.344Z,4.63
2022-11-02T21:11:59.543Z,4.80
2022-11-02T21:14:27.034Z,4.27
2022-11-02T21:16:55.426Z,5.93
2022-11-02T21:19:23.405Z,7.10
2022-11-02T21:21:58.152Z,5.37
2022-11-02T21:24:26.745Z,4.27
2022-11-02T21:26:53.741Z,4.47
2022-11-02T21:29:21.314Z,4.83
2022-11-02T21:31:48.690Z,4.83
2022-11-02T21:34:15.826Z,4.93
2022-11-02T21:36:42.628Z,4.40
2022-11-02T21:39:10.520Z,4.43
2022-11-02T21:41:39.307Z,4.67
2022-11-02T21:44:07.591Z,5.33
2022-11-02T21:46:36.014Z,4.77
2022-11-02T21:49:03.025Z,5.23
2022-11-02T21:51:30.028Z,4.93
2022-11-02T21:53:57.023Z,4.47
2022-11-02T21:56:27.800Z,4.70
2022-11-02T21:58:56.735Z,4.70
2022-11-02T22:01:48.547Z,5.07
2022-11-02T22:04:21.726Z,4.47
2022-11-02T22:06:48.657Z,5.33
2022-11-02T22:09:15.420Z,4.33
2022-11-02T22:11:42.821Z,4.50
2022-11-02T22:14:11.845Z,4.90
2022-11-02T22:16:41.313Z,4.37
2022-11-02T22:19:08.339Z,4.27
2022-11-02T22:21:46.130Z,4.40
2022-11-02T22:24:13.157Z,4.23
2022-11-02T22:26:41.268Z,4.97
2022-11-02T22:29:09.526Z,4.00
2022-11-02T22:31:40.554Z,3.97
2022-11-02T22:34:10.770Z,4.30
2022-11-02T22:36:40.804Z,4.50
2022-11-02T22:39:11.920Z,4.47
2022-11-02T22:41:46.181Z,4.00
2022-11-02T22:44:14.954Z,4.10
2022-11-02T22:46:44.029Z,3.73
2022-11-02T22:49:13.092Z,4.53
2022-11-02T22:51:45.489Z,4.27
2022-11-02T22:54:15.695Z,4.73
2022-11-02T22:56:43.535Z,4.10
2022-11-02T22:59:11.530Z,3.90
2022-11-02T23:01:38.812Z,4.20
2022-11-02T23:04:07.177Z,3.90
2022-11-02T23:06:34.765Z,4.00
2022-11-02T23:09:02.199Z,3.50
2022-11-02T23:11:32.041Z,3.80
2022-11-02T23:14:13.536Z,3.77
2022-11-02T23:16:42.349Z,3.80
2022-11-02T23:19:28.321Z,4.00
2022-11-02T23:22:15.685Z,4.10
2022-11-02T23:25:11.203Z,3.80
2022-11-02T23:28:13.290Z,4.20
2022-11-02T23:30:59.507Z,4.47
2022-11-02T23:33:31.594Z,4.90
2022-11-02T23:36:11.441Z,4.47
2022-11-02T23:38:57.282Z,4.27
2022-11-02T23:41:25.299Z,3.80
2022-11-02T23:43:52.072Z,4.33
2022-11-02T23:46:18.793Z,4.20
2022-11-02T23:48:48.362Z,4.37
2022-11-02T23:51:36.361Z,5.07
2022-11-02T23:54:21.784Z,5.03
2022-11-02T23:56:50.080Z,4.50
2022-11-02T23:59:18.075Z,4.40
